createdAt,value
2023-03-16T00:00:48.342Z,3.90
2023-03-16T00:03:19.404Z,3.72
2023-03-16T00:05:47.677Z,3.85
2023-03-16T00:08:15.216Z,3.10
2023-03-16T00:10:46.596Z,3.55
2023-03-16T00:13:17.636Z,3.17
2023-03-16T00:15:59.085Z,3.72
2023-03-16T00:18:27.981Z,3.65
2023-03-16T00:20:56.760Z,3.60
2023-03-16T00:23:27.176Z,3.42
2023-03-16T00:25:58.734Z,3.67
2023-03-16T00:28:26.467Z,3.83
2023-03-16T00:30:53.147Z,3.03
2023-03-16T00:33:19.542Z,3.58
2023-03-16T00:35:51.328Z,3.38
2023-03-16T00:38:19.143Z,2.90
2023-03-16T00:40:47.053Z,2.67
2023-03-16T00:43:18.584Z,2.92
2023-03-16T00:45:45.423Z,3.17
2023-03-16T00:48:11.991Z,3.30
2023-03-16T00:50:39.551Z,3.22
2023-03-16T00:53:06.290Z,2.92
2023-03-16T00:55:33.420Z,3.38
2023-03-16T00:57:59.850Z,2.70
2023-03-16T01:00:28.325Z,3.00
2023-03-16T01:02:55.043Z,3.50
2023-03-16T01:05:21.476Z,2.67
2023-03-16T01:07:47.879Z,3.05
2023-03-16T01:10:16.464Z,3.13
2023-03-16T01:12:45.273Z,3.30
2023-03-16T01:15:12.004Z,3.08
2023-03-16T01:17:38.452Z,3.28
2023-03-16T01:20:08.319Z,3.55
2023-03-16T01:22:34.740Z,2.80
2023-03-16T01:25:01.749Z,3.47
2023-03-16T01:27:28.134Z,3.55
2023-03-16T01:29:54.708Z,3.15
2023-03-16T01:32:21.138Z,3.05
2023-03-16T01:34:47.577Z,2.95
2023-03-16T01:37:14.701Z,2.97
2023-03-16T01:39:55.434Z,3.42
2023-03-16T01:42:21.826Z,3.22
2023-03-16T01:44:55.186Z,3.00
2023-03-16T01:47:23.804Z,3.17
2023-03-16T01:49:54.942Z,3.33
2023-03-16T01:52:33.247Z,3.20
2023-03-16T01:55:08.559Z,3.03
2023-03-16T01:57:40.221Z,2.88
2023-03-16T02:00:19.864Z,3.13
2023-03-16T02:03:13.753Z,3.47
2023-03-16T02:06:09.814Z,3.13
2023-03-16T02:08:38.863Z,2.55
2023-03-16T02:11:08.371Z,3.05
2023-03-16T02:13:43.530Z,2.90
2023-03-16T02:16:12.254Z,3.15
2023-03-16T02:44:33.647Z,2.88
2023-03-16T02:47:05.629Z,3.13
2023-03-16T02:49:41.970Z,3.08
2023-03-16T02:52:09.021Z,2.50
2023-03-16T02:54:35.605Z,2.50
2023-03-16T02:57:02.346Z,2.95
2023-03-16T02:59:31.101Z,2.50
2023-03-16T03:01:57.708Z,2.90
2023-03-16T03:04:24.699Z,2.40
2023-03-16T03:06:51.800Z,2.88
2023-03-16T03:09:18.888Z,2.72
2023-03-16T03:11:46.826Z,3.22
2023-03-16T03:14:16.817Z,2.88
2023-03-16T03:16:46.884Z,2.38
2023-03-16T03:19:14.109Z,2.85
2023-03-16T03:21:41.531Z,2.97
2023-03-16T03:24:08.928Z,3.33
2023-03-16T03:26:35.366Z,3.58
2023-03-16T03:29:04.895Z,3.30
2023-03-16T03:31:35.096Z,2.97
2023-03-16T03:34:06.426Z,2.72
2023-03-16T03:36:34.969Z,2.88
2023-03-16T03:39:04.957Z,2.40
2023-03-16T03:41:32.920Z,2.70
2023-03-16T03:44:04.177Z,3.17
2023-03-16T03:46:30.949Z,2.90
2023-03-16T03:49:01.998Z,3.88
2023-03-16T03:51:34.198Z,3.03
2023-03-16T03:54:13.772Z,3.50
2023-03-16T03:56:53.518Z,3.00
2023-03-16T03:59:20.836Z,2.95
2023-03-16T04:02:10.327Z,3.22
2023-03-16T04:04:42.687Z,3.03
2023-03-16T04:07:11.571Z,2.80
2023-03-16T04:09:38.928Z,2.90
2023-03-16T04:12:07.767Z,2.78
2023-03-16T04:14:34.268Z,2.85
2023-03-16T04:17:04.755Z,2.80
2023-03-16T04:19:33.536Z,3.00
2023-03-16T04:22:00.328Z,2.80
2023-03-16T04:24:26.968Z,2.78
2023-03-16T04:26:54.419Z,2.80
2023-03-16T04:29:21.399Z,4.43
2023-03-16T04:31:47.984Z,3.05
2023-03-16T04:34:14.899Z,2.92
2023-03-16T04:36:42.103Z,3.20
2023-03-16T04:39:10.347Z,2.78
2023-03-16T04:41:37.361Z,2.90
2023-03-16T04:44:12.684Z,2.95
2023-03-16T04:46:39.753Z,3.00
2023-03-16T04:49:09.651Z,3.08
2023-03-16T04:51:37.781Z,2.60
2023-03-16T04:56:36.104Z,2.97
2023-03-16T04:59:07.706Z,4.25
2023-03-16T05:01:44.711Z,2.88
2023-03-16T05:04:18.889Z,3.38
2023-03-16T05:06:46.189Z,4.03
2023-03-16T05:09:13.957Z,2.95
2023-03-16T05:11:40.552Z,2.97
2023-03-16T05:14:09.900Z,2.72
2023-03-16T05:16:49.573Z,3.13
2023-03-16T05:19:16.242Z,2.70
2023-03-16T05:21:43.409Z,3.35
2023-03-16T05:24:09.845Z,3.35
2023-03-16T05:26:36.279Z,3.00
2023-03-16T05:29:05.465Z,3.45
2023-03-16T05:31:36.256Z,3.97
2023-03-16T05:34:08.196Z,3.08
2023-03-16T05:36:36.188Z,2.83
2023-03-16T05:39:08.648Z,2.78
2023-03-16T05:41:38.461Z,2.08
2023-03-16T05:44:32.082Z,3.10
2023-03-16T05:47:19.501Z,2.83
2023-03-16T05:49:50.623Z,3.40
2023-03-16T05:52:26.676Z,2.88
2023-03-16T05:54:55.139Z,3.33
2023-03-16T05:57:21.670Z,2.53
2023-03-16T05:59:50.872Z,3.50
2023-03-16T06:02:17.376Z,3.33
2023-03-16T06:04:43.851Z,2.63
2023-03-16T06:07:10.692Z,3.53
2023-03-16T06:09:37.230Z,3.58
2023-03-16T06:12:09.888Z,3.17
2023-03-16T06:14:37.142Z,3.42
2023-03-16T06:17:03.609Z,3.33
2023-03-16T06:19:31.639Z,3.40
2023-03-16T06:22:00.287Z,4.05
2023-03-16T06:24:27.708Z,3.35
2023-03-16T06:26:54.268Z,3.45
2023-03-16T06:29:25.403Z,2.95
2023-03-16T06:31:52.512Z,3.45
2023-03-16T06:34:19.345Z,3.13
2023-03-16T06:36:45.798Z,3.25
2023-03-16T06:39:14.316Z,3.15
2023-03-16T06:41:43.012Z,3.63
2023-03-16T06:44:12.128Z,3.40
2023-03-16T06:46:47.204Z,3.15
2023-03-16T06:49:13.609Z,3.67
2023-03-16T06:51:40.073Z,4.50
2023-03-16T06:54:06.543Z,3.70
2023-03-16T06:56:36.878Z,3.22
2023-03-16T06:59:03.751Z,3.30
2023-03-16T07:01:30.313Z,3.95
2023-03-16T07:03:56.766Z,4.05
2023-03-16T07:06:27.461Z,3.75
2023-03-16T07:08:54.271Z,2.92
2023-03-16T07:11:21.885Z,3.47
2023-03-16T07:13:48.268Z,3.53
2023-03-16T07:16:16.124Z,3.15
2023-03-16T07:18:44.359Z,2.88
2023-03-16T07:21:12.197Z,4.05
2023-03-16T07:23:38.754Z,2.72
2023-03-16T07:26:08.239Z,2.65
2023-03-16T07:31:09.394Z,3.40
2023-03-16T07:33:38.831Z,2.85
2023-03-16T07:36:10.515Z,2.85
2023-03-16T07:38:41.649Z,2.75
2023-03-16T07:41:08.909Z,2.35
2023-03-16T07:43:35.769Z,2.90
2023-03-16T07:46:02.291Z,2.63
2023-03-16T07:48:29.426Z,3.28
2023-03-16T07:50:59.864Z,2.58
2023-03-16T07:53:27.320Z,2.58
2023-03-16T07:56:09.596Z,2.50
2023-03-16T07:58:38.254Z,3.75
2023-03-16T08:01:04.751Z,2.75
2023-03-16T08:03:32.000Z,3.10
2023-03-16T08:05:58.776Z,2.65
2023-03-16T08:08:26.399Z,2.95
2023-03-16T08:10:54.141Z,2.03
2023-03-16T08:13:27.293Z,2.92
2023-03-16T08:15:58.754Z,2.85
2023-03-16T08:18:32.178Z,2.33
2023-03-16T08:20:58.697Z,2.58
2023-03-16T08:23:25.918Z,2.45
2023-03-16T08:25:57.100Z,2.28
2023-03-16T08:28:25.937Z,2.53
2023-03-16T08:30:55.434Z,2.20
2023-03-16T08:33:33.172Z,2.10
2023-03-16T08:35:59.984Z,2.55
2023-03-16T08:38:27.012Z,3.08
2023-03-16T08:40:53.712Z,3.58
2023-03-16T08:43:21.890Z,2.22
2023-03-16T08:45:49.163Z,2.38
2023-03-16T08:48:18.326Z,2.05
2023-03-16T08:50:48.984Z,2.65
2023-03-16T08:53:15.403Z,2.90
2023-03-16T08:55:42.226Z,2.38
2023-03-16T08:58:10.424Z,2.42
2023-03-16T09:00:37.429Z,2.65
2023-03-16T09:03:03.886Z,2.47
2023-03-16T09:05:30.620Z,2.15
2023-03-16T09:07:57.216Z,1.90
2023-03-16T09:10:23.641Z,2.45
2023-03-16T09:12:50.537Z,1.98
2023-03-16T09:15:17.018Z,2.25
2023-03-16T09:17:45.001Z,1.88
2023-03-16T09:20:22.188Z,2.13
2023-03-16T09:22:49.403Z,2.55
2023-03-16T09:25:16.066Z,2.25
2023-03-16T09:27:42.669Z,1.90
2023-03-16T09:30:09.706Z,2.97
2023-03-16T09:32:37.358Z,2.38
2023-03-16T09:35:06.193Z,2.25
2023-03-16T09:37:44.585Z,2.17
2023-03-16T09:40:28.705Z,1.77
2023-03-16T09:43:07.103Z,1.92
2023-03-16T09:45:45.522Z,1.85
2023-03-16T09:48:12.244Z,2.35
2023-03-16T09:50:48.699Z,1.65
2023-03-16T09:53:25.288Z,2.20
2023-03-16T09:56:00.471Z,2.35
2023-03-16T09:58:27.229Z,2.72
2023-03-16T10:01:04.933Z,2.70
2023-03-16T10:03:46.720Z,2.63
2023-03-16T10:06:16.853Z,2.08
2023-03-16T10:08:46.395Z,1.57
2023-03-16T10:11:22.232Z,1.80
2023-03-16T10:14:02.506Z,1.80
2023-03-16T10:16:31.830Z,1.70
2023-03-16T10:19:05.794Z,1.80
2023-03-16T10:21:39.823Z,2.38
2023-03-16T10:24:19.439Z,1.90
2023-03-16T10:26:54.384Z,1.90
2023-03-16T10:29:20.799Z,2.17
2023-03-16T10:31:47.440Z,2.00
2023-03-16T10:34:15.212Z,1.88
2023-03-16T10:36:44.445Z,1.65
2023-03-16T10:39:13.077Z,2.33
2023-03-16T10:41:43.378Z,1.80
2023-03-16T10:44:30.139Z,1.95
2023-03-16T10:47:08.187Z,1.80
2023-03-16T10:49:44.421Z,1.60
2023-03-16T10:52:19.748Z,2.08
2023-03-16T10:54:52.715Z,1.88
2023-03-16T10:57:23.810Z,2.10
2023-03-16T11:02:20.696Z,2.00
2023-03-16T11:04:47.918Z,1.60
2023-03-16T11:07:19.013Z,1.65
2023-03-16T11:12:26.413Z,1.60
2023-03-16T11:14:54.058Z,1.60
2023-03-16T11:17:39.930Z,1.52
2023-03-16T11:20:17.491Z,1.60
2023-03-16T11:22:47.155Z,1.27
2023-03-16T11:25:36.627Z,1.50
2023-03-16T11:28:06.411Z,1.70
2023-03-16T11:31:01.336Z,1.77
2023-03-16T11:33:30.986Z,1.83
2023-03-16T11:36:25.340Z,1.83
2023-03-16T11:39:10.915Z,1.85
2023-03-16T11:41:59.599Z,1.40
2023-03-16T11:44:36.157Z,2.58
2023-03-16T11:47:29.012Z,1.90
2023-03-16T11:50:05.615Z,1.35
2023-03-16T11:52:41.937Z,1.40
2023-03-16T11:55:28.726Z,1.63
2023-03-16T11:58:25.031Z,1.60
2023-03-16T12:01:30.765Z,1.58
2023-03-16T12:04:32.489Z,1.23
2023-03-16T12:07:05.996Z,1.38
2023-03-16T12:09:58.156Z,1.45
2023-03-16T12:12:38.871Z,1.30
2023-03-16T12:15:36.703Z,1.48
2023-03-16T12:18:12.593Z,1.75
2023-03-16T12:21:01.604Z,1.92
2023-03-16T12:23:39.403Z,1.73
2023-03-16T12:26:06.408Z,1.65
2023-03-16T12:28:33.516Z,1.60
2023-03-16T12:31:14.518Z,1.67
2023-03-16T12:33:56.391Z,1.92
2023-03-16T12:36:50.970Z,1.48
2023-03-16T12:39:55.285Z,1.75
2023-03-16T12:42:36.194Z,1.40
2023-03-16T12:45:11.037Z,1.20
2023-03-16T12:47:49.476Z,1.30
2023-03-16T12:50:18.983Z,1.25
2023-03-16T12:52:51.769Z,1.20
2023-03-16T12:55:21.010Z,1.23
2023-03-16T12:57:51.489Z,1.48
2023-03-16T13:00:18.485Z,1.30
2023-03-16T13:02:50.998Z,1.33
2023-03-16T13:05:28.397Z,2.00
2023-03-16T13:08:07.998Z,1.17
2023-03-16T13:10:35.098Z,1.30
2023-03-16T13:13:16.107Z,1.40
2023-03-16T13:18:22.486Z,1.73
2023-03-16T13:21:01.686Z,1.40
2023-03-16T13:23:46.492Z,1.13
2023-03-16T13:26:16.579Z,1.48
2023-03-16T13:28:46.032Z,1.20
2023-03-16T13:31:29.525Z,1.38
2023-03-16T13:33:59.839Z,1.92
2023-03-16T13:36:28.749Z,1.20
2023-03-16T13:39:06.777Z,1.58
2023-03-16T13:41:33.187Z,1.75
2023-03-16T13:43:59.661Z,1.35
2023-03-16T13:46:30.684Z,1.20
2023-03-16T13:51:33.151Z,1.23
2023-03-16T13:54:18.883Z,1.30
2023-03-16T13:56:45.371Z,1.20
2023-03-16T13:59:11.922Z,1.50
2023-03-16T14:01:38.434Z,1.95
2023-03-16T14:04:13.668Z,1.40
2023-03-16T14:06:41.302Z,1.83
2023-03-16T14:09:21.590Z,1.23
2023-03-16T14:11:48.778Z,1.33
2023-03-16T14:14:17.320Z,1.45
2023-03-16T14:16:44.570Z,1.38
2023-03-16T14:19:22.586Z,1.27
2023-03-16T14:21:49.686Z,1.25
2023-03-16T14:24:37.055Z,1.38
2023-03-16T14:27:19.292Z,1.38
2023-03-16T14:29:50.434Z,1.40
2023-03-16T14:32:28.099Z,1.25
2023-03-16T14:35:03.949Z,1.55
2023-03-16T14:37:37.320Z,1.20
2023-03-16T14:40:07.387Z,1.40
2023-03-16T14:42:34.734Z,1.67
2023-03-16T14:45:04.781Z,1.25
2023-03-16T14:47:38.587Z,1.57
2023-03-16T14:50:15.275Z,1.00
2023-03-16T14:52:41.710Z,1.30
2023-03-16T14:55:19.693Z,1.65
2023-03-16T14:57:46.418Z,1.10
2023-03-16T15:00:16.609Z,1.48
2023-03-16T15:02:45.811Z,1.50
2023-03-16T15:05:21.749Z,1.60
2023-03-16T15:07:53.654Z,1.20
2023-03-16T15:10:29.824Z,1.40
2023-03-16T15:13:04.322Z,1.40
2023-03-16T15:15:31.560Z,1.58
2023-03-16T15:17:58.377Z,1.55
2023-03-16T15:20:35.912Z,1.73
2023-03-16T15:23:04.876Z,1.15
2023-03-16T15:25:37.261Z,1.65
2023-03-16T15:28:11.960Z,2.13
2023-03-16T15:30:39.046Z,1.65
2023-03-16T15:33:05.902Z,1.60
2023-03-16T15:35:32.596Z,1.60
2023-03-16T15:38:02.978Z,1.50
2023-03-16T15:40:29.905Z,1.55
2023-03-16T15:42:56.922Z,1.40
2023-03-16T15:45:23.900Z,1.20
2023-03-16T15:47:51.720Z,1.27
2023-03-16T15:50:21.716Z,1.80
2023-03-16T15:53:05.829Z,1.58
2023-03-16T15:55:36.608Z,1.90
2023-03-16T15:58:05.176Z,1.67
2023-03-16T16:00:34.842Z,1.30
2023-03-16T16:03:02.886Z,1.20
2023-03-16T16:05:30.865Z,1.40
2023-03-16T16:07:58.366Z,1.23
2023-03-16T16:10:26.815Z,1.30
2023-03-16T16:12:55.156Z,1.25
2023-03-16T16:15:28.925Z,1.58
2023-03-16T16:18:19.184Z,1.20
2023-03-16T16:20:44.090Z,1.65
2023-03-16T16:23:10.525Z,1.52
2023-03-16T16:25:41.290Z,1.60
2023-03-16T16:28:17.470Z,1.17
2023-03-16T16:30:44.484Z,1.52
2023-03-16T16:33:29.907Z,1.35
2023-03-16T16:35:58.950Z,1.40
2023-03-16T16:38:25.835Z,1.60
2023-03-16T16:40:54.122Z,1.40
2023-03-16T16:43:32.615Z,1.20
2023-03-16T16:46:04.982Z,1.40
2023-03-16T16:48:36.603Z,1.70
2023-03-16T16:51:07.179Z,1.13
2023-03-16T16:53:33.640Z,1.42
2023-03-16T16:56:00.294Z,2.03
2023-03-16T16:58:27.067Z,1.67
2023-03-16T17:00:56.527Z,1.90
2023-03-16T17:03:24.675Z,1.67
2023-03-16T17:05:54.403Z,1.65
2023-03-16T17:08:21.019Z,1.38
2023-03-16T17:10:47.867Z,1.50
2023-03-16T17:13:23.322Z,1.70
2023-03-16T17:15:49.747Z,1.27
2023-03-16T17:18:16.822Z,1.85
2023-03-16T17:20:43.232Z,2.15
2023-03-16T17:23:34.516Z,1.83
2023-03-16T17:28:35.112Z,1.50
2023-03-16T17:31:01.556Z,2.05
2023-03-16T17:33:28.364Z,1.67
2023-03-16T17:35:55.105Z,1.65
2023-03-16T17:38:24.299Z,2.45
2023-03-16T17:40:52.790Z,1.95
2023-03-16T17:43:22.429Z,1.50
2023-03-16T17:45:51.648Z,2.35
2023-03-16T17:48:20.844Z,3.00
2023-03-16T17:50:48.601Z,3.17
2023-03-16T17:53:19.967Z,2.03
2023-03-16T17:55:47.063Z,1.90
2023-03-16T17:58:30.283Z,2.38
2023-03-16T18:01:09.571Z,2.28
2023-03-16T18:03:36.088Z,2.00
2023-03-16T18:06:02.506Z,3.20
2023-03-16T18:08:33.205Z,2.78
2023-03-16T18:11:02.531Z,2.95
2023-03-16T18:13:33.378Z,2.85
2023-03-16T18:16:00.823Z,2.30
2023-03-16T18:18:30.072Z,2.45
2023-03-16T18:20:57.636Z,2.10
2023-03-16T18:23:33.450Z,2.17
2023-03-16T18:26:06.988Z,2.90
2023-03-16T18:28:35.010Z,2.58
2023-03-16T18:31:03.633Z,2.50
2023-03-16T18:34:11.431Z,1.92
2023-03-16T18:36:37.997Z,2.08
2023-03-16T18:39:17.052Z,3.25
2023-03-16T18:41:44.657Z,2.72
2023-03-16T18:44:20.288Z,3.75
2023-03-16T18:46:48.442Z,3.10
2023-03-16T18:49:23.154Z,2.15
2023-03-16T18:51:53.274Z,2.78
2023-03-16T18:54:31.157Z,2.40
2023-03-16T18:56:58.891Z,3.10
2023-03-16T18:59:25.753Z,2.40
2023-03-16T19:01:53.248Z,2.83
2023-03-16T19:04:29.257Z,3.28
2023-03-16T19:06:56.732Z,2.55
2023-03-16T19:09:32.409Z,2.78
2023-03-16T19:11:59.406Z,2.80
2023-03-16T19:14:30.779Z,2.70
2023-03-16T19:16:57.168Z,4.18
2023-03-16T19:19:24.374Z,3.50
2023-03-16T19:21:57.169Z,3.25
2023-03-16T19:24:27.368Z,2.97
2023-03-16T19:26:54.446Z,2.80
2023-03-16T19:29:29.575Z,2.60
2023-03-16T19:31:57.160Z,2.75
2023-03-16T19:34:23.901Z,2.50
2023-03-16T19:36:50.972Z,2.78
2023-03-16T19:39:17.445Z,2.40
2023-03-16T19:41:47.532Z,2.63
2023-03-16T19:44:17.833Z,3.10
2023-03-16T19:46:45.164Z,1.63
2023-03-16T19:49:22.653Z,2.42
2023-03-16T19:51:53.806Z,2.28
2023-03-16T19:56:52.524Z,2.47
2023-03-16T19:59:20.072Z,2.40
2023-03-16T20:01:47.038Z,2.50
2023-03-16T20:04:20.048Z,2.30
2023-03-16T20:06:49.365Z,2.40
2023-03-16T20:09:16.936Z,2.67
2023-03-16T20:11:43.793Z,2.45
2023-03-16T20:14:29.039Z,2.28
2023-03-16T20:16:55.943Z,2.53
2023-03-16T20:19:23.071Z,1.95
2023-03-16T20:21:49.581Z,2.05
2023-03-16T20:24:18.129Z,2.00
2023-03-16T20:26:46.294Z,2.63
2023-03-16T20:29:29.366Z,2.38
2023-03-16T20:31:56.124Z,2.40
2023-03-16T20:34:28.451Z,2.63
2023-03-16T20:36:55.784Z,2.40
2023-03-16T20:39:22.547Z,2.67
2023-03-16T20:41:50.380Z,2.95
2023-03-16T20:44:21.268Z,3.35
2023-03-16T20:46:47.781Z,2.65
2023-03-16T20:49:23.613Z,3.92
2023-03-16T20:51:50.695Z,2.80
2023-03-16T20:54:17.705Z,3.40
2023-03-16T20:56:44.408Z,2.70
2023-03-16T20:59:20.314Z,3.10
2023-03-16T21:01:47.918Z,2.90
2023-03-16T21:04:23.533Z,3.67
2023-03-16T21:06:51.008Z,2.80
2023-03-16T21:09:18.723Z,3.38
2023-03-16T21:11:46.303Z,3.10
2023-03-16T21:14:22.201Z,3.10
2023-03-16T21:16:49.390Z,3.22
2023-03-16T21:19:21.550Z,2.90
2023-03-16T21:21:48.322Z,2.92
2023-03-16T21:24:14.925Z,3.10
2023-03-16T21:26:43.861Z,3.03
2023-03-16T21:29:16.111Z,3.45
2023-03-16T21:31:42.952Z,2.75
2023-03-16T21:34:23.707Z,3.30
2023-03-16T21:36:50.412Z,3.20
2023-03-16T21:39:22.355Z,2.72
2023-03-16T21:41:50.574Z,2.95
2023-03-16T21:44:17.295Z,3.17
2023-03-16T21:46:43.831Z,3.40
2023-03-16T21:49:12.000Z,3.08
2023-03-16T21:51:38.400Z,3.95
2023-03-16T21:54:07.880Z,4.13
2023-03-16T21:56:36.032Z,4.20
2023-03-16T21:59:02.571Z,3.38
2023-03-16T22:01:31.467Z,4.30
2023-03-16T22:04:02.758Z,4.38
2023-03-16T22:06:30.366Z,4.18
2023-03-16T22:09:00.306Z,3.33
2023-03-16T22:11:28.812Z,4.10
2023-03-16T22:13:56.932Z,3.40
2023-03-16T22:16:26.331Z,3.67
2023-03-16T22:18:56.309Z,3.63
2023-03-16T22:21:32.711Z,3.83
2023-03-16T22:23:59.840Z,4.13
2023-03-16T22:26:27.699Z,4.85
2023-03-16T22:28:56.164Z,4.35
2023-03-16T22:31:28.900Z,4.45
2023-03-16T22:33:55.479Z,4.00
2023-03-16T22:36:22.856Z,4.40
2023-03-16T22:38:56.817Z,4.10
2023-03-16T22:41:23.555Z,4.28
2023-03-16T22:43:50.155Z,4.55
2023-03-16T22:46:23.511Z,3.97
2023-03-16T22:48:51.474Z,5.40
2023-03-16T22:51:26.590Z,4.22
2023-03-16T22:53:56.949Z,4.78
2023-03-16T22:56:24.318Z,4.93
2023-03-16T22:59:07.785Z,4.15
2023-03-16T23:01:34.240Z,4.22
2023-03-16T23:04:01.793Z,4.90
2023-03-16T23:06:31.379Z,4.97
2023-03-16T23:08:58.140Z,5.53
2023-03-16T23:11:28.564Z,5.20
2023-03-16T23:13:55.430Z,5.10
2023-03-16T23:16:28.300Z,5.32
2023-03-16T23:18:55.413Z,4.97
2023-03-16T23:21:23.751Z,5.78
2023-03-16T23:24:03.149Z,5.78
2023-03-16T23:26:31.683Z,4.72
2023-03-16T23:28:58.609Z,5.57
2023-03-16T23:31:27.009Z,5.60
2023-03-16T23:33:53.413Z,5.18
2023-03-16T23:36:22.512Z,5.65
2023-03-16T23:38:50.378Z,5.38
2023-03-16T23:41:21.677Z,4.78
2023-03-16T23:43:48.918Z,5.78
2023-03-16T23:46:18.464Z,5.68
2023-03-16T23:48:47.276Z,5.57
2023-03-16T23:51:27.690Z,4.93
2023-03-16T23:53:54.499Z,5.18
2023-03-16T23:56:22.499Z,6.07
2023-03-16T23:58:49.011Z,5.40
